sensor_id;sensor_type;location;lat;lon;timestamp;P1;durP1;ratioP1;P2;durP2;ratioP2
9007;SDS011;62813;51.424;6.762;2023-04-30T00:00:48;9.80;;;7.17;;
9007;SDS011;62813;51.424;6.762;2023-04-30T00:03:14;13.17;;;8.07;;
9007;SDS011;62813;51.424;6.762;2023-04-30T00:05:41;8.97;;;7.33;;
9007;SDS011;62813;51.424;6.762;2023-04-30T00:08:07;13.73;;;7.53;;
9007;SDS011;62813;51.424;6.762;2023-04-30T00:10:34;10.60;;;7.50;;
9007;SDS011;62813;51.424;6.762;2023-04-30T00:13:00;12.27;;;7.10;;
9007;SDS011;62813;51.424;6.762;2023-04-30T00:15:27;7.73;;;6.60;;
9007;SDS011;62813;51.424;6.762;2023-04-30T00:17:54;11.17;;;7.47;;
9007;SDS011;62813;51.424;6.762;2023-04-30T00:20:20;9.57;;;7.20;;
9007;SDS011;62813;51.424;6.762;2023-04-30T00:22:47;9.40;;;7.30;;
9007;SDS011;62813;51.424;6.762;2023-04-30T00:25:14;10.60;;;7.53;;
9007;SDS011;62813;51.424;6.762;2023-04-30T00:27:41;11.47;;;6.83;;
9007;SDS011;62813;51.424;6.762;2023-04-30T00:30:08;9.57;;;7.30;;
9007;SDS011;62813;51.424;6.762;2023-04-30T00:32:35;12.07;;;7.57;;
9007;SDS011;62813;51.424;6.762;2023-04-30T00:35:01;8.27;;;7.13;;
9007;SDS011;62813;51.424;6.762;2023-04-30T00:37:28;10.80;;;7.70;;
9007;SDS011;62813;51.424;6.762;2023-04-30T00:39:57;9.03;;;7.37;;
9007;SDS011;62813;51.424;6.762;2023-04-30T00:42:23;10.53;;;7.53;;
9007;SDS011;62813;51.424;6.762;2023-04-30T00:44:50;8.87;;;7.17;;
9007;SDS011;62813;51.424;6.762;2023-04-30T00:47:16;11.23;;;7.60;;
9007;SDS011;62813;51.424;6.762;2023-04-30T00:49:43;10.70;;;6.93;;
9007;SDS011;62813;51.424;6.762;2023-04-30T00:52:10;9.90;;;7.33;;
9007;SDS011;62813;51.424;6.762;2023-04-30T00:54:36;9.27;;;7.70;;
9007;SDS011;62813;51.424;6.762;2023-04-30T00:57:03;8.97;;;7.80;;
9007;SDS011;62813;51.424;6.762;2023-04-30T00:59:30;10.03;;;7.57;;
9007;SDS011;62813;51.424;6.762;2023-04-30T01:01:58;9.87;;;7.73;;
9007;SDS011;62813;51.424;6.762;2023-04-30T01:04:24;9.30;;;7.63;;
9007;SDS011;62813;51.424;6.762;2023-04-30T01:06:51;8.77;;;6.97;;
9007;SDS011;62813;51.424;6.762;2023-04-30T01:09:18;10.63;;;7.63;;
9007;SDS011;62813;51.424;6.762;2023-04-30T01:14:31;9.87;;;7.23;;
9007;SDS011;62813;51.424;6.762;2023-04-30T01:19:42;9.37;;;7.07;;
9007;SDS011;62813;51.424;6.762;2023-04-30T01:22:19;10.77;;;7.77;;
9007;SDS011;62813;51.424;6.762;2023-04-30T01:29:55;8.50;;;6.77;;
9007;SDS011;62813;51.424;6.762;2023-04-30T01:32:23;10.40;;;7.70;;
9007;SDS011;62813;51.424;6.762;2023-04-30T01:34:50;11.63;;;7.83;;
9007;SDS011;62813;51.424;6.762;2023-04-30T01:37:20;12.53;;;8.17;;
9007;SDS011;62813;51.424;6.762;2023-04-30T01:39:50;8.83;;;7.60;;
9007;SDS011;62813;51.424;6.762;2023-04-30T01:42:22;12.67;;;7.23;;
9007;SDS011;62813;51.424;6.762;2023-04-30T01:45:13;11.80;;;7.67;;
9007;SDS011;62813;51.424;6.762;2023-04-30T01:47:45;16.20;;;7.90;;
9007;SDS011;62813;51.424;6.762;2023-04-30T01:53:00;10.53;;;7.87;;
9007;SDS011;62813;51.424;6.762;2023-04-30T01:55:29;9.77;;;7.80;;
9007;SDS011;62813;51.424;6.762;2023-04-30T01:58:02;9.27;;;7.73;;
9007;SDS011;62813;51.424;6.762;2023-04-30T02:00:30;12.60;;;7.77;;
9007;SDS011;62813;51.424;6.762;2023-04-30T02:02:57;10.77;;;7.47;;
9007;SDS011;62813;51.424;6.762;2023-04-30T02:05:24;9.60;;;7.13;;
9007;SDS011;62813;51.424;6.762;2023-04-30T02:07:51;11.10;;;8.20;;
9007;SDS011;62813;51.424;6.762;2023-04-30T02:10:18;9.23;;;7.60;;
9007;SDS011;62813;51.424;6.762;2023-04-30T02:12:44;11.90;;;9.07;;
9007;SDS011;62813;51.424;6.762;2023-04-30T02:15:11;9.93;;;8.07;;
9007;SDS011;62813;51.424;6.762;2023-04-30T02:17:38;10.70;;;7.60;;
9007;SDS011;62813;51.424;6.762;2023-04-30T02:20:04;9.40;;;7.50;;
9007;SDS011;62813;51.424;6.762;2023-04-30T02:22:32;9.90;;;7.83;;
9007;SDS011;62813;51.424;6.762;2023-04-30T02:24:59;9.80;;;8.40;;
9007;SDS011;62813;51.424;6.762;2023-04-30T02:27:26;10.97;;;7.80;;
9007;SDS011;62813;51.424;6.762;2023-04-30T02:29:52;10.70;;;8.53;;
9007;SDS011;62813;51.424;6.762;2023-04-30T02:32:19;10.00;;;8.10;;
9007;SDS011;62813;51.424;6.762;2023-04-30T02:34:46;9.10;;;6.70;;
9007;SDS011;62813;51.424;6.762;2023-04-30T02:37:13;9.83;;;8.13;;
9007;SDS011;62813;51.424;6.762;2023-04-30T02:39:39;12.10;;;7.83;;
9007;SDS011;62813;51.424;6.762;2023-04-30T02:42:06;12.20;;;8.50;;
9007;SDS011;62813;51.424;6.762;2023-04-30T02:44:33;8.07;;;7.27;;
9007;SDS011;62813;51.424;6.762;2023-04-30T02:47:00;11.30;;;8.53;;
9007;SDS011;62813;51.424;6.762;2023-04-30T02:49:27;11.00;;;8.63;;
9007;SDS011;62813;51.424;6.762;2023-04-30T02:51:53;12.97;;;9.60;;
9007;SDS011;62813;51.424;6.762;2023-04-30T02:54:20;11.50;;;10.13;;
9007;SDS011;62813;51.424;6.762;2023-04-30T02:56:47;15.37;;;10.13;;
9007;SDS011;62813;51.424;6.762;2023-04-30T02:59:13;14.23;;;11.47;;
9007;SDS011;62813;51.424;6.762;2023-04-30T03:01:40;18.20;;;11.50;;
9007;SDS011;62813;51.424;6.762;2023-04-30T03:04:07;18.20;;;13.13;;
9007;SDS011;62813;51.424;6.762;2023-04-30T03:06:34;18.80;;;14.10;;
9007;SDS011;62813;51.424;6.762;2023-04-30T03:09:01;17.03;;;13.37;;
9007;SDS011;62813;51.424;6.762;2023-04-30T03:11:27;17.90;;;13.67;;
9007;SDS011;62813;51.424;6.762;2023-04-30T03:13:54;14.90;;;11.73;;
9007;SDS011;62813;51.424;6.762;2023-04-30T03:16:21;13.27;;;11.00;;
9007;SDS011;62813;51.424;6.762;2023-04-30T03:18:48;14.37;;;10.27;;
9007;SDS011;62813;51.424;6.762;2023-04-30T03:21:14;12.33;;;9.17;;
9007;SDS011;62813;51.424;6.762;2023-04-30T03:23:41;11.53;;;9.50;;
9007;SDS011;62813;51.424;6.762;2023-04-30T03:26:08;12.13;;;9.70;;
9007;SDS011;62813;51.424;6.762;2023-04-30T03:28:35;12.97;;;9.70;;
9007;SDS011;62813;51.424;6.762;2023-04-30T03:31:01;11.97;;;8.87;;
9007;SDS011;62813;51.424;6.762;2023-04-30T03:33:31;12.23;;;9.10;;
9007;SDS011;62813;51.424;6.762;2023-04-30T03:35:58;12.70;;;9.37;;
9007;SDS011;62813;51.424;6.762;2023-04-30T03:38:25;10.13;;;8.43;;
9007;SDS011;62813;51.424;6.762;2023-04-30T03:40:51;12.57;;;9.07;;
9007;SDS011;62813;51.424;6.762;2023-04-30T03:43:18;10.23;;;8.57;;
9007;SDS011;62813;51.424;6.762;2023-04-30T03:45:45;10.63;;;8.77;;
9007;SDS011;62813;51.424;6.762;2023-04-30T03:48:11;11.23;;;8.57;;
9007;SDS011;62813;51.424;6.762;2023-04-30T03:50:38;11.97;;;9.17;;
9007;SDS011;62813;51.424;6.762;2023-04-30T03:53:05;13.50;;;9.07;;
9007;SDS011;62813;51.424;6.762;2023-04-30T03:55:32;13.23;;;9.37;;
9007;SDS011;62813;51.424;6.762;2023-04-30T03:57:59;11.30;;;8.37;;
9007;SDS011;62813;51.424;6.762;2023-04-30T04:00:25;10.50;;;9.20;;
9007;SDS011;62813;51.424;6.762;2023-04-30T04:02:52;10.77;;;8.77;;
9007;SDS011;62813;51.424;6.762;2023-04-30T04:05:19;11.43;;;9.30;;
9007;SDS011;62813;51.424;6.762;2023-04-30T04:07:45;10.87;;;8.97;;
9007;SDS011;62813;51.424;6.762;2023-04-30T04:10:12;12.10;;;9.37;;
9007;SDS011;62813;51.424;6.762;2023-04-30T04:12:39;10.97;;;8.77;;
9007;SDS011;62813;51.424;6.762;2023-04-30T04:15:06;10.63;;;8.20;;
9007;SDS011;62813;51.424;6.762;2023-04-30T04:17:32;10.67;;;8.17;;
9007;SDS011;62813;51.424;6.762;2023-04-30T04:19:59;10.77;;;8.87;;
9007;SDS011;62813;51.424;6.762;2023-04-30T04:22:28;9.37;;;8.13;;
9007;SDS011;62813;51.424;6.762;2023-04-30T04:24:55;12.47;;;9.00;;
9007;SDS011;62813;51.424;6.762;2023-04-30T04:27:21;10.27;;;9.00;;
9007;SDS011;62813;51.424;6.762;2023-04-30T04:29:48;11.27;;;8.80;;
9007;SDS011;62813;51.424;6.762;2023-04-30T04:32:15;10.73;;;8.37;;
9007;SDS011;62813;51.424;6.762;2023-04-30T04:34:41;10.97;;;9.00;;
9007;SDS011;62813;51.424;6.762;2023-04-30T04:37:09;14.63;;;9.23;;
9007;SDS011;62813;51.424;6.762;2023-04-30T04:39:36;11.13;;;9.63;;
9007;SDS011;62813;51.424;6.762;2023-04-30T04:42:03;12.83;;;9.60;;
9007;SDS011;62813;51.424;6.762;2023-04-30T04:44:30;11.27;;;9.40;;
9007;SDS011;62813;51.424;6.762;2023-04-30T04:46:57;12.90;;;9.90;;
9007;SDS011;62813;51.424;6.762;2023-04-30T04:49:24;10.47;;;9.37;;
9007;SDS011;62813;51.424;6.762;2023-04-30T04:51:51;12.10;;;9.77;;
9007;SDS011;62813;51.424;6.762;2023-04-30T04:54:17;12.60;;;9.07;;
9007;SDS011;62813;51.424;6.762;2023-04-30T04:56:44;13.73;;;8.67;;
9007;SDS011;62813;51.424;6.762;2023-04-30T04:59:11;10.13;;;8.70;;
9007;SDS011;62813;51.424;6.762;2023-04-30T05:01:38;11.83;;;8.57;;
9007;SDS011;62813;51.424;6.762;2023-04-30T05:04:04;12.03;;;8.37;;
9007;SDS011;62813;51.424;6.762;2023-04-30T05:06:31;13.30;;;8.50;;
9007;SDS011;62813;51.424;6.762;2023-04-30T05:08:58;11.13;;;9.20;;
9007;SDS011;62813;51.424;6.762;2023-04-30T05:11:25;14.27;;;9.10;;
9007;SDS011;62813;51.424;6.762;2023-04-30T05:13:52;11.67;;;9.10;;
9007;SDS011;62813;51.424;6.762;2023-04-30T05:16:18;10.67;;;8.50;;
9007;SDS011;62813;51.424;6.762;2023-04-30T05:18:45;10.23;;;8.40;;
9007;SDS011;62813;51.424;6.762;2023-04-30T05:21:12;11.20;;;8.80;;
9007;SDS011;62813;51.424;6.762;2023-04-30T05:23:38;9.57;;;8.57;;
9007;SDS011;62813;51.424;6.762;2023-04-30T05:26:05;12.73;;;8.53;;
9007;SDS011;62813;51.424;6.762;2023-04-30T05:28:32;13.87;;;8.80;;
9007;SDS011;62813;51.424;6.762;2023-04-30T05:30:59;10.53;;;8.60;;
9007;SDS011;62813;51.424;6.762;2023-04-30T05:33:25;9.90;;;8.40;;
9007;SDS011;62813;51.424;6.762;2023-04-30T05:35:53;10.77;;;8.67;;
9007;SDS011;62813;51.424;6.762;2023-04-30T05:38:19;10.07;;;8.80;;
9007;SDS011;62813;51.424;6.762;2023-04-30T05:40:46;9.33;;;8.17;;
9007;SDS011;62813;51.424;6.762;2023-04-30T05:43:12;11.13;;;8.23;;
9007;SDS011;62813;51.424;6.762;2023-04-30T05:45:39;10.07;;;7.90;;
9007;SDS011;62813;51.424;6.762;2023-04-30T05:48:06;11.20;;;8.60;;
9007;SDS011;62813;51.424;6.762;2023-04-30T05:50:32;9.30;;;8.30;;
9007;SDS011;62813;51.424;6.762;2023-04-30T05:52:59;11.57;;;8.13;;
9007;SDS011;62813;51.424;6.762;2023-04-30T05:55:26;12.67;;;8.93;;
9007;SDS011;62813;51.424;6.762;2023-04-30T05:57:52;10.07;;;8.10;;
9007;SDS011;62813;51.424;6.762;2023-04-30T06:00:19;10.07;;;7.80;;
9007;SDS011;62813;51.424;6.762;2023-04-30T06:02:45;11.97;;;8.57;;
9007;SDS011;62813;51.424;6.762;2023-04-30T06:05:12;10.20;;;8.27;;
9007;SDS011;62813;51.424;6.762;2023-04-30T06:07:41;10.20;;;8.60;;
9007;SDS011;62813;51.424;6.762;2023-04-30T06:10:08;10.67;;;8.07;;
9007;SDS011;62813;51.424;6.762;2023-04-30T06:12:35;12.73;;;9.03;;
9007;SDS011;62813;51.424;6.762;2023-04-30T06:15:01;14.33;;;8.87;;
9007;SDS011;62813;51.424;6.762;2023-04-30T06:17:28;9.87;;;8.20;;
9007;SDS011;62813;51.424;6.762;2023-04-30T06:19:55;10.70;;;8.40;;
9007;SDS011;62813;51.424;6.762;2023-04-30T06:22:23;10.20;;;8.83;;
9007;SDS011;62813;51.424;6.762;2023-04-30T06:24:50;10.47;;;7.80;;
9007;SDS011;62813;51.424;6.762;2023-04-30T06:27:16;11.83;;;8.07;;
9007;SDS011;62813;51.424;6.762;2023-04-30T06:29:46;8.70;;;7.57;;
9007;SDS011;62813;51.424;6.762;2023-04-30T06:32:12;12.77;;;9.17;;
9007;SDS011;62813;51.424;6.762;2023-04-30T06:34:39;11.60;;;8.50;;
9007;SDS011;62813;51.424;6.762;2023-04-30T06:37:06;12.33;;;7.97;;
9007;SDS011;62813;51.424;6.762;2023-04-30T06:39:32;9.40;;;8.40;;
9007;SDS011;62813;51.424;6.762;2023-04-30T06:41:59;10.60;;;8.60;;
9007;SDS011;62813;51.424;6.762;2023-04-30T06:44:26;10.00;;;7.93;;
9007;SDS011;62813;51.424;6.762;2023-04-30T06:46:53;10.03;;;8.17;;
9007;SDS011;62813;51.424;6.762;2023-04-30T06:49:19;11.17;;;8.07;;
9007;SDS011;62813;51.424;6.762;2023-04-30T06:51:46;9.33;;;7.90;;
9007;SDS011;62813;51.424;6.762;2023-04-30T06:54:12;10.30;;;8.07;;
9007;SDS011;62813;51.424;6.762;2023-04-30T06:56:39;10.47;;;7.90;;
9007;SDS011;62813;51.424;6.762;2023-04-30T06:59:06;11.07;;;8.17;;
9007;SDS011;62813;51.424;6.762;2023-04-30T07:01:33;10.67;;;7.90;;
9007;SDS011;62813;51.424;6.762;2023-04-30T07:03:59;8.27;;;7.47;;
9007;SDS011;62813;51.424;6.762;2023-04-30T07:06:29;9.33;;;7.93;;
9007;SDS011;62813;51.424;6.762;2023-04-30T07:08:56;8.67;;;7.77;;
9007;SDS011;62813;51.424;6.762;2023-04-30T07:11:22;12.27;;;8.43;;
9007;SDS011;62813;51.424;6.762;2023-04-30T07:13:49;8.50;;;6.80;;
9007;SDS011;62813;51.424;6.762;2023-04-30T07:16:16;10.00;;;7.90;;
9007;SDS011;62813;51.424;6.762;2023-04-30T07:18:43;10.47;;;8.10;;
9007;SDS011;62813;51.424;6.762;2023-04-30T07:21:09;9.60;;;8.10;;
9007;SDS011;62813;51.424;6.762;2023-04-30T07:23:36;9.23;;;7.70;;
9007;SDS011;62813;51.424;6.762;2023-04-30T07:26:03;10.67;;;8.07;;
9007;SDS011;62813;51.424;6.762;2023-04-30T07:28:30;9.30;;;7.50;;
9007;SDS011;62813;51.424;6.762;2023-04-30T07:30:56;9.07;;;8.17;;
9007;SDS011;62813;51.424;6.762;2023-04-30T07:33:25;10.93;;;7.93;;
9007;SDS011;62813;51.424;6.762;2023-04-30T07:35:51;10.40;;;8.20;;
9007;SDS011;62813;51.424;6.762;2023-04-30T07:38:19;9.60;;;7.90;;
9007;SDS011;62813;51.424;6.762;2023-04-30T07:40:49;8.37;;;7.33;;
9007;SDS011;62813;51.424;6.762;2023-04-30T07:43:15;7.60;;;6.77;;
9007;SDS011;62813;51.424;6.762;2023-04-30T07:45:42;10.23;;;7.70;;
9007;SDS011;62813;51.424;6.762;2023-04-30T07:48:09;9.80;;;7.10;;
9007;SDS011;62813;51.424;6.762;2023-04-30T07:50:36;8.40;;;7.40;;
9007;SDS011;62813;51.424;6.762;2023-04-30T07:53:03;8.17;;;7.30;;
9007;SDS011;62813;51.424;6.762;2023-04-30T07:55:30;8.40;;;7.03;;
9007;SDS011;62813;51.424;6.762;2023-04-30T07:57:57;8.40;;;7.57;;
9007;SDS011;62813;51.424;6.762;2023-04-30T08:00:24;10.23;;;8.27;;
9007;SDS011;62813;51.424;6.762;2023-04-30T08:02:51;9.47;;;7.83;;
9007;SDS011;62813;51.424;6.762;2023-04-30T08:05:18;9.17;;;7.70;;
9007;SDS011;62813;51.424;6.762;2023-04-30T08:07:45;10.37;;;8.10;;
9007;SDS011;62813;51.424;6.762;2023-04-30T08:10:12;11.30;;;8.00;;
9007;SDS011;62813;51.424;6.762;2023-04-30T08:12:38;9.37;;;7.70;;
9007;SDS011;62813;51.424;6.762;2023-04-30T08:15:05;8.07;;;7.27;;
9007;SDS011;62813;51.424;6.762;2023-04-30T08:17:33;7.77;;;6.93;;
9007;SDS011;62813;51.424;6.762;2023-04-30T08:20:00;8.87;;;7.43;;
9007;SDS011;62813;51.424;6.762;2023-04-30T08:22:26;10.50;;;6.83;;
9007;SDS011;62813;51.424;6.762;2023-04-30T08:24:53;9.77;;;6.80;;
9007;SDS011;62813;51.424;6.762;2023-04-30T08:27:21;7.70;;;6.90;;
9007;SDS011;62813;51.424;6.762;2023-04-30T08:29:47;8.27;;;7.07;;
9007;SDS011;62813;51.424;6.762;2023-04-30T08:32:14;8.73;;;7.60;;
9007;SDS011;62813;51.424;6.762;2023-04-30T08:34:41;9.37;;;7.50;;
9007;SDS011;62813;51.424;6.762;2023-04-30T08:37:08;9.37;;;7.27;;
9007;SDS011;62813;51.424;6.762;2023-04-30T08:39:35;9.67;;;7.40;;
9007;SDS011;62813;51.424;6.762;2023-04-30T08:42:03;12.73;;;7.90;;
9007;SDS011;62813;51.424;6.762;2023-04-30T08:44:33;8.80;;;7.60;;
9007;SDS011;62813;51.424;6.762;2023-04-30T08:47:01;9.60;;;7.27;;
9007;SDS011;62813;51.424;6.762;2023-04-30T08:49:29;8.17;;;6.80;;
9007;SDS011;62813;51.424;6.762;2023-04-30T08:52:01;7.60;;;6.83;;
9007;SDS011;62813;51.424;6.762;2023-04-30T08:54:29;12.33;;;7.83;;
9007;SDS011;62813;51.424;6.762;2023-04-30T08:56:57;11.10;;;6.87;;
9007;SDS011;62813;51.424;6.762;2023-04-30T08:59:24;14.33;;;7.50;;
9007;SDS011;62813;51.424;6.762;2023-04-30T09:01:50;14.43;;;8.00;;
9007;SDS011;62813;51.424;6.762;2023-04-30T09:04:21;11.83;;;7.67;;
9007;SDS011;62813;51.424;6.762;2023-04-30T09:06:48;10.73;;;7.23;;
9007;SDS011;62813;51.424;6.762;2023-04-30T09:09:17;9.93;;;6.67;;
9007;SDS011;62813;51.424;6.762;2023-04-30T09:11:44;11.57;;;6.83;;
9007;SDS011;62813;51.424;6.762;2023-04-30T09:14:10;8.60;;;6.57;;
9007;SDS011;62813;51.424;6.762;2023-04-30T09:16:49;11.47;;;6.33;;
9007;SDS011;62813;51.424;6.762;2023-04-30T09:19:23;10.17;;;5.80;;
9007;SDS011;62813;51.424;6.762;2023-04-30T09:21:50;7.07;;;5.30;;
9007;SDS011;62813;51.424;6.762;2023-04-30T09:24:17;6.13;;;4.77;;
9007;SDS011;62813;51.424;6.762;2023-04-30T09:26:44;5.53;;;4.87;;
9007;SDS011;62813;51.424;6.762;2023-04-30T09:29:13;4.27;;;3.70;;
9007;SDS011;62813;51.424;6.762;2023-04-30T09:31:43;4.67;;;3.77;;
9007;SDS011;62813;51.424;6.762;2023-04-30T09:34:10;5.00;;;3.07;;
9007;SDS011;62813;51.424;6.762;2023-04-30T09:36:37;6.50;;;4.00;;
9007;SDS011;62813;51.424;6.762;2023-04-30T09:39:16;5.07;;;4.37;;
9007;SDS011;62813;51.424;6.762;2023-04-30T09:41:43;5.73;;;4.30;;
9007;SDS011;62813;51.424;6.762;2023-04-30T09:44:36;4.33;;;3.70;;
9007;SDS011;62813;51.424;6.762;2023-04-30T09:46:57;6.57;;;3.90;;
9007;SDS011;62813;51.424;6.762;2023-04-30T09:49:24;5.10;;;4.33;;
9007;SDS011;62813;51.424;6.762;2023-04-30T09:51:53;5.67;;;4.90;;
9007;SDS011;62813;51.424;6.762;2023-04-30T09:54:24;5.53;;;4.83;;
9007;SDS011;62813;51.424;6.762;2023-04-30T09:56:59;5.83;;;4.50;;
9007;SDS011;62813;51.424;6.762;2023-04-30T09:59:36;5.37;;;4.50;;
9007;SDS011;62813;51.424;6.762;2023-04-30T10:02:06;6.40;;;4.30;;
9007;SDS011;62813;51.424;6.762;2023-04-30T10:04:38;5.07;;;4.53;;
9007;SDS011;62813;51.424;6.762;2023-04-30T10:07:07;7.00;;;4.80;;
9007;SDS011;62813;51.424;6.762;2023-04-30T10:09:43;6.47;;;4.47;;
9007;SDS011;62813;51.424;6.762;2023-04-30T10:12:13;5.70;;;4.33;;
9007;SDS011;62813;51.424;6.762;2023-04-30T10:14:43;5.37;;;3.93;;
9007;SDS011;62813;51.424;6.762;2023-04-30T10:17:12;6.47;;;3.60;;
9007;SDS011;62813;51.424;6.762;2023-04-30T10:19:39;5.77;;;3.83;;
9007;SDS011;62813;51.424;6.762;2023-04-30T10:22:12;4.23;;;3.80;;
9007;SDS011;62813;51.424;6.762;2023-04-30T10:24:40;5.33;;;3.30;;
9007;SDS011;62813;51.424;6.762;2023-04-30T10:27:07;3.60;;;3.30;;
9007;SDS011;62813;51.424;6.762;2023-04-30T10:29:34;4.87;;;3.90;;
9007;SDS011;62813;51.424;6.762;2023-04-30T10:32:00;4.63;;;3.80;;
9007;SDS011;62813;51.424;6.762;2023-04-30T10:39:54;3.77;;;2.93;;
9007;SDS011;62813;51.424;6.762;2023-04-30T10:42:22;4.80;;;2.83;;
9007;SDS011;62813;51.424;6.762;2023-04-30T10:44:48;4.23;;;3.03;;
9007;SDS011;62813;51.424;6.762;2023-04-30T10:47:15;3.80;;;2.77;;
9007;SDS011;62813;51.424;6.762;2023-04-30T10:49:45;4.30;;;3.20;;
9007;SDS011;62813;51.424;6.762;2023-04-30T10:52:14;4.60;;;2.70;;
9007;SDS011;62813;51.424;6.762;2023-04-30T10:54:51;5.10;;;3.10;;
9007;SDS011;62813;51.424;6.762;2023-04-30T10:57:20;3.10;;;2.73;;
9007;SDS011;62813;51.424;6.762;2023-04-30T11:02:41;4.00;;;3.53;;
9007;SDS011;62813;51.424;6.762;2023-04-30T11:05:10;3.33;;;3.00;;
9007;SDS011;62813;51.424;6.762;2023-04-30T11:10:14;4.57;;;3.77;;
9007;SDS011;62813;51.424;6.762;2023-04-30T11:12:48;4.37;;;3.37;;
9007;SDS011;62813;51.424;6.762;2023-04-30T11:15:16;7.47;;;3.83;;
9007;SDS011;62813;51.424;6.762;2023-04-30T11:17:43;4.27;;;3.20;;
9007;SDS011;62813;51.424;6.762;2023-04-30T11:20:17;3.60;;;3.03;;
9007;SDS011;62813;51.424;6.762;2023-04-30T11:22:44;4.40;;;3.70;;
9007;SDS011;62813;51.424;6.762;2023-04-30T11:25:11;4.43;;;3.90;;
9007;SDS011;62813;51.424;6.762;2023-04-30T11:27:41;4.67;;;4.23;;
9007;SDS011;62813;51.424;6.762;2023-04-30T11:30:18;4.97;;;4.27;;
9007;SDS011;62813;51.424;6.762;2023-04-30T11:32:45;4.23;;;3.37;;
9007;SDS011;62813;51.424;6.762;2023-04-30T11:35:14;4.10;;;3.50;;
9007;SDS011;62813;51.424;6.762;2023-04-30T11:37:42;5.57;;;4.27;;
9007;SDS011;62813;51.424;6.762;2023-04-30T11:40:10;5.07;;;3.70;;
9007;SDS011;62813;51.424;6.762;2023-04-30T11:42:38;4.87;;;3.80;;
9007;SDS011;62813;51.424;6.762;2023-04-30T11:47:41;3.67;;;3.27;;
9007;SDS011;62813;51.424;6.762;2023-04-30T11:50:09;3.63;;;3.30;;
9007;SDS011;62813;51.424;6.762;2023-04-30T11:52:38;3.70;;;3.23;;
9007;SDS011;62813;51.424;6.762;2023-04-30T11:55:14;6.17;;;3.00;;
9007;SDS011;62813;51.424;6.762;2023-04-30T11:57:42;4.73;;;2.80;;
9007;SDS011;62813;51.424;6.762;2023-04-30T12:00:13;5.77;;;3.40;;
9007;SDS011;62813;51.424;6.762;2023-04-30T12:02:40;4.27;;;2.83;;
9007;SDS011;62813;51.424;6.762;2023-04-30T12:05:11;4.87;;;2.97;;
9007;SDS011;62813;51.424;6.762;2023-04-30T12:07:38;2.97;;;2.43;;
9007;SDS011;62813;51.424;6.762;2023-04-30T12:10:05;2.60;;;2.10;;
9007;SDS011;62813;51.424;6.762;2023-04-30T12:12:32;1.83;;;1.70;;
9007;SDS011;62813;51.424;6.762;2023-04-30T12:15:09;2.90;;;2.20;;
9007;SDS011;62813;51.424;6.762;2023-04-30T12:17:39;2.87;;;2.33;;
9007;SDS011;62813;51.424;6.762;2023-04-30T12:20:07;3.67;;;2.53;;
9007;SDS011;62813;51.424;6.762;2023-04-30T12:22:34;3.53;;;2.67;;
9007;SDS011;62813;51.424;6.762;2023-04-30T12:25:04;2.70;;;2.40;;
9007;SDS011;62813;51.424;6.762;2023-04-30T12:27:33;4.03;;;2.30;;
9007;SDS011;62813;51.424;6.762;2023-04-30T12:30:09;4.30;;;2.23;;
9007;SDS011;62813;51.424;6.762;2023-04-30T12:32:40;2.43;;;2.23;;
9007;SDS011;62813;51.424;6.762;2023-04-30T12:35:07;3.47;;;2.23;;
9007;SDS011;62813;51.424;6.762;2023-04-30T12:37:34;4.17;;;2.30;;
9007;SDS011;62813;51.424;6.762;2023-04-30T12:40:01;3.17;;;1.80;;
9007;SDS011;62813;51.424;6.762;2023-04-30T12:42:31;3.00;;;2.20;;
9007;SDS011;62813;51.424;6.762;2023-04-30T12:45:01;4.03;;;1.77;;
9007;SDS011;62813;51.424;6.762;2023-04-30T12:47:32;3.30;;;2.10;;
9007;SDS011;62813;51.424;6.762;2023-04-30T12:50:06;2.60;;;2.17;;
9007;SDS011;62813;51.424;6.762;2023-04-30T12:52:32;1.93;;;1.80;;
9007;SDS011;62813;51.424;6.762;2023-04-30T12:55:18;3.37;;;2.40;;
9007;SDS011;62813;51.424;6.762;2023-04-30T12:58:01;4.70;;;2.80;;
9007;SDS011;62813;51.424;6.762;2023-04-30T13:00:28;3.07;;;1.90;;
9007;SDS011;62813;51.424;6.762;2023-04-30T13:02:54;4.53;;;2.30;;
9007;SDS011;62813;51.424;6.762;2023-04-30T13:05:21;3.50;;;2.03;;
9007;SDS011;62813;51.424;6.762;2023-04-30T13:07:51;2.13;;;1.73;;
9007;SDS011;62813;51.424;6.762;2023-04-30T13:10:17;4.47;;;1.90;;
9007;SDS011;62813;51.424;6.762;2023-04-30T13:12:44;4.27;;;2.00;;
9007;SDS011;62813;51.424;6.762;2023-04-30T13:15:10;3.67;;;1.77;;
9007;SDS011;62813;51.424;6.762;2023-04-30T13:17:37;2.83;;;2.10;;
9007;SDS011;62813;51.424;6.762;2023-04-30T13:20:05;1.70;;;1.40;;
9007;SDS011;62813;51.424;6.762;2023-04-30T13:22:31;2.47;;;2.27;;
9007;SDS011;62813;51.424;6.762;2023-04-30T13:24:58;4.10;;;2.43;;
9007;SDS011;62813;51.424;6.762;2023-04-30T13:27:25;2.97;;;2.67;;
9007;SDS011;62813;51.424;6.762;2023-04-30T13:29:52;2.43;;;2.23;;
9007;SDS011;62813;51.424;6.762;2023-04-30T13:32:19;4.97;;;2.27;;
9007;SDS011;62813;51.424;6.762;2023-04-30T13:34:45;3.03;;;2.10;;
9007;SDS011;62813;51.424;6.762;2023-04-30T13:37:14;2.60;;;2.20;;
9007;SDS011;62813;51.424;6.762;2023-04-30T13:39:40;4.60;;;2.30;;
9007;SDS011;62813;51.424;6.762;2023-04-30T13:42:07;3.67;;;2.63;;
9007;SDS011;62813;51.424;6.762;2023-04-30T13:44:34;4.00;;;2.57;;
9007;SDS011;62813;51.424;6.762;2023-04-30T13:47:01;3.67;;;2.40;;
9007;SDS011;62813;51.424;6.762;2023-04-30T13:49:27;2.40;;;1.90;;
9007;SDS011;62813;51.424;6.762;2023-04-30T13:51:55;3.30;;;2.13;;
9007;SDS011;62813;51.424;6.762;2023-04-30T13:54:21;2.70;;;2.13;;
9007;SDS011;62813;51.424;6.762;2023-04-30T13:56:49;4.30;;;2.40;;
9007;SDS011;62813;51.424;6.762;2023-04-30T13:59:16;6.47;;;2.17;;
9007;SDS011;62813;51.424;6.762;2023-04-30T14:01:43;4.93;;;2.13;;
9007;SDS011;62813;51.424;6.762;2023-04-30T14:04:10;2.10;;;1.60;;
9007;SDS011;62813;51.424;6.762;2023-04-30T14:06:36;2.70;;;1.93;;
9007;SDS011;62813;51.424;6.762;2023-04-30T14:09:04;3.07;;;2.13;;
9007;SDS011;62813;51.424;6.762;2023-04-30T14:11:31;3.37;;;2.20;;
9007;SDS011;62813;51.424;6.762;2023-04-30T14:13:57;3.20;;;2.03;;
9007;SDS011;62813;51.424;6.762;2023-04-30T14:16:24;4.07;;;2.50;;
9007;SDS011;62813;51.424;6.762;2023-04-30T14:18:51;3.80;;;1.80;;
9007;SDS011;62813;51.424;6.762;2023-04-30T14:21:17;4.03;;;1.77;;
9007;SDS011;62813;51.424;6.762;2023-04-30T14:23:44;1.87;;;1.77;;
9007;SDS011;62813;51.424;6.762;2023-04-30T14:26:14;2.17;;;1.87;;
9007;SDS011;62813;51.424;6.762;2023-04-30T14:28:40;2.60;;;2.00;;
9007;SDS011;62813;51.424;6.762;2023-04-30T14:31:07;2.17;;;1.90;;
9007;SDS011;62813;51.424;6.762;2023-04-30T14:33:34;3.10;;;1.83;;
9007;SDS011;62813;51.424;6.762;2023-04-30T14:36:03;2.00;;;1.60;;
9007;SDS011;62813;51.424;6.762;2023-04-30T14:38:30;3.87;;;1.47;;
9007;SDS011;62813;51.424;6.762;2023-04-30T14:40:57;2.40;;;1.50;;
9007;SDS011;62813;51.424;6.762;2023-04-30T14:43:23;1.83;;;1.50;;
9007;SDS011;62813;51.424;6.762;2023-04-30T14:45:50;1.83;;;1.50;;
9007;SDS011;62813;51.424;6.762;2023-04-30T14:48:17;1.63;;;1.53;;
9007;SDS011;62813;51.424;6.762;2023-04-30T14:50:44;2.37;;;1.70;;
9007;SDS011;62813;51.424;6.762;2023-04-30T14:53:11;2.50;;;1.60;;
9007;SDS011;62813;51.424;6.762;2023-04-30T14:55:38;2.40;;;1.63;;
9007;SDS011;62813;51.424;6.762;2023-04-30T14:58:05;2.57;;;1.97;;
9007;SDS011;62813;51.424;6.762;2023-04-30T15:00:31;2.83;;;2.00;;
9007;SDS011;62813;51.424;6.762;2023-04-30T15:02:58;3.80;;;2.07;;
9007;SDS011;62813;51.424;6.762;2023-04-30T15:05:25;3.33;;;1.90;;
9007;SDS011;62813;51.424;6.762;2023-04-30T15:07:52;3.83;;;1.90;;
9007;SDS011;62813;51.424;6.762;2023-04-30T15:10:18;2.23;;;1.60;;
9007;SDS011;62813;51.424;6.762;2023-04-30T15:12:47;3.50;;;1.70;;
9007;SDS011;62813;51.424;6.762;2023-04-30T15:15:14;2.93;;;1.70;;
9007;SDS011;62813;51.424;6.762;2023-04-30T15:17:46;2.00;;;1.80;;
9007;SDS011;62813;51.424;6.762;2023-04-30T15:20:12;2.97;;;2.07;;
9007;SDS011;62813;51.424;6.762;2023-04-30T15:22:42;5.83;;;1.90;;
9007;SDS011;62813;51.424;6.762;2023-04-30T15:25:08;2.80;;;1.90;;